Seven Points, Texas
Current Conditions -  °F | °C
As of 5:53 AM on Monday 20 Oct 2014 (Local Time) from KCRS Reporting Station
Clear Clear  
Wind Chill: 59°   Ceiling: Unl
Heat Index: 59°   Visibility: 10mi
Dew Point: 54°   Wind: 3mph
Humidity: 83%   Direction: 140°SE
Pressure: 30.07"   Gusts: NA
Location:  32.3343°N, 96.2786°W
Report Text: KCRS 201053Z AUTO 14003KT 10SM CLR 15/12 A3007 RMK AO2 SLP181 T01500122
Loading
Personal Weather Stations






























Interactive Weather Map
Tropical Storm Tracking
New forecast layout! Learn more

10-Day Weather Forecast

Advertisements
Track Severe Weather on mobile